Time;durP1;ratioP1;P1;durP2;ratioP2;P2;SDS_P1;SDS_P2;PMS_P1;PMS_P2;Temp;Humidity;BMP_temperature;BMP_pressure;BME280_temperature;BME280_humidity;BME280_pressure;Samples;Min_cycle;Max_cycle;Signal;HPM_P1;HPM_P2
2023/10/09 05:32:03;;;;;;;;;;;;;;;14.55;73.25;100353.69;1088045;54;761;-78
2023/10/09 05:34:21;;;;;;;;;;;;;;;14.53;73.59;100351.13;1086937;47;1250;-78
2023/10/09 05:35:39;;;;;;;;;;;;;;;14.57;73.23;100351.66;1087312;54;1089;-79
2023/10/09 05:36:47;;;;;;;;;;;;;;;14.53;73.20;100353.00;1086694;47;1058;-78
2023/10/09 05:37:59;;;;;;;;;;;;;;;14.56;73.12;100353.50;1086907;54;1846;-78
2023/10/09 05:39:17;;;;;;;;;;;;;;;14.60;72.78;100354.00;1086804;54;1046;-78
2023/10/09 05:40:30;;;;;;;;;;;;;;;14.58;72.88;100348.81;1087165;54;1165;-79
2023/10/09 05:41:45;;;;;;;;;;;;;;;14.61;72.95;100348.47;1086626;47;1007;-78
2023/10/09 05:42:57;;;;;;;;;;;;;;;14.62;72.61;100352.00;1086439;46;1047;-78
2023/10/09 05:46:48;;;;;;;;;;;;;;;14.67;72.33;100347.00;1087331;47;972;-76
2023/10/09 05:47:53;;;;;;;;;;;;;;;14.70;72.39;100348.50;1086684;54;1632;-77
2023/10/09 05:49:08;;;;;;;;;;;;;;;14.70;72.29;100349.38;1086793;54;1445;-76
2023/10/09 05:54:23;;;;;;;;;;;;;;;14.69;72.14;100368.38;1086513;47;1399;-78
2023/10/09 06:04:33;;;;;;;;;;;;;;;14.79;71.86;100366.34;1087128;47;1350;-78
2023/10/09 06:06:01;;;;;;;;;;;;;;;14.82;71.88;100369.59;1087272;54;1344;-78
2023/10/09 06:07:35;;;;;;;;;;;;;;;;;;;;;
2023/10/09 06:10:38;;;;;;;;;;;;;;;14.82;71.61;100374.13;1088283;46;823;-80
2023/10/09 06:11:49;;;;;;;;;;;;;;;14.85;71.85;100378.31;1087758;47;986;-79
2023/10/09 06:12:56;;;;;;;;;;;;;;;14.86;71.51;100380.88;1087945;54;928;-81
2023/10/09 06:14:12;;;;;;;;;;;;;;;14.87;71.61;100379.00;1087755;47;1407;-80
2023/10/09 06:17:22;;;;;;;;;;;;;;;14.84;71.13;100379.31;1087946;47;1006;-79
2023/10/09 06:18:34;;;;;;;;;;;;;;;14.86;71.68;100377.31;1087655;47;1838;-80
2023/10/09 06:19:43;;;;;;;;;;;;;;;14.88;71.35;100369.94;1087725;47;929;-80
2023/10/09 06:23:50;;;;;;;;;;;;;;;14.94;70.83;100382.72;1087679;47;1047;-79
2023/10/09 06:24:42;;;;;;;;;;;;;;;14.96;71.19;100381.56;1087594;47;971;-80
2023/10/09 06:25:50;;;;;;;;;;;;;;;14.94;70.96;100385.41;1087314;47;972;-79
2023/10/09 06:27:12;;;;;;;;;;;;;;;14.94;70.99;100388.09;1087643;54;949;-79
2023/10/09 06:28:18;;;;;;;;;;;;;;;14.94;71.17;100382.72;1087481;54;940;-79
2023/10/09 06:29:35;;;;;;;;;;;;;;;14.95;70.96;100382.56;1087603;46;1392;-77
2023/10/09 06:30:36;;;;;;;;;;;;;;;14.98;71.41;100381.38;1086956;54;1102;-78
2023/10/09 06:33:04;;;;;;;;;;;;;;;14.97;71.55;100383.22;1087179;46;1047;-78
2023/10/09 06:34:15;;;;;;;;;;;;;;;15.00;71.00;100398.22;1087122;46;1415;-79
2023/10/09 06:35:16;;;;;;;;;;;;;;;15.01;70.97;100393.66;1087113;54;1116;-79
2023/10/09 06:36:23;;;;;;;;;;;;;;;15.03;71.15;100395.19;1086620;47;1003;-79
2023/10/09 06:37:38;;;;;;;;;;;;;;;15.04;70.86;100388.78;1087660;47;936;-79
2023/10/09 06:38:52;;;;;;;;;;;;;;;15.01;71.29;100401.75;1087198;47;1106;-79
2023/10/09 06:42:43;;;;;;;;;;;;;;;15.09;70.70;100396.38;1087662;46;1025;-79
2023/10/09 06:43:47;;;;;;;;;;;;;;;15.09;70.59;100381.06;1087806;54;1404;-79
2023/10/09 06:44:57;;;;;;;;;;;;;;;15.07;70.88;100385.78;1088107;54;1056;-79
2023/10/09 06:45:58;;;;;;;;;;;;;;;15.09;70.96;100386.47;1087791;54;1049;-78
2023/10/09 06:47:07;;;;;;;;;;;;;;;15.11;70.93;100388.97;1087528;54;1082;-78
2023/10/09 06:49:36;;;;;;;;;;;;;;;15.11;71.08;100384.41;1087786;47;942;-78
2023/10/09 06:51:55;;;;;;;;;;;;;;;15.13;70.88;100386.97;1087415;51;1031;-79
2023/10/09 06:54:18;;;;;;;;;;;;;;;15.07;71.45;100385.78;1086892;47;1333;-79
2023/10/09 06:55:19;;;;;;;;;;;;;;;15.11;71.18;100383.59;1086931;54;1134;-79
2023/10/09 06:56:26;;;;;;;;;;;;;;;15.16;70.98;100396.56;1086959;46;994;-79
2023/10/09 06:58:47;;;;;;;;;;;;;;;15.23;70.81;100386.78;1087548;47;916;-79
2023/10/09 07:01:39;;;;;;;;;;;;;;;15.28;70.28;100384.47;1087877;47;997;-80
2023/10/09 07:02:57;;;;;;;;;;;;;;;15.28;70.47;100379.06;1086271;54;1436;-79
2023/10/09 07:04:32;;;;;;;;;;;;;;;;;;;;;
2023/10/09 07:06:11;;;;;;;;;;;;;;;15.32;70.36;100374.19;1087331;54;868;-79
2023/10/09 07:07:20;;;;;;;;;;;;;;;15.31;70.48;100367.13;1087232;47;1110;-79
2023/10/09 07:08:53;;;;;;;;;;;;;;;;;;;;;
2023/10/09 07:12:32;;;;;;;;;;;;;;;15.40;70.38;100377.72;1088200;47;1099;-80
2023/10/09 07:13:37;;;;;;;;;;;;;;;15.37;70.25;100377.22;1088588;54;989;-78
2023/10/09 07:17:15;;;;;;;;;;;;;;;15.48;70.40;100378.75;1088259;47;871;-79
2023/10/09 07:18:23;;;;;;;;;;;;;;;15.46;70.07;100380.75;1087850;54;1873;-78
2023/10/09 07:19:26;;;;;;;;;;;;;;;15.40;70.38;100379.56;1087314;54;947;-78
2023/10/09 07:20:39;;;;;;;;;;;;;;;15.44;70.31;100381.75;1085731;47;1436;-78
2023/10/09 07:21:51;;;;;;;;;;;;;;;15.47;70.19;100377.88;1087535;46;1357;-78
2023/10/09 07:22:56;;;;;;;;;;;;;;;15.46;70.43;100386.13;1087576;54;994;-79
2023/10/09 07:24:13;;;;;;;;;;;;;;;15.49;69.93;100386.66;1086980;54;1385;-78
2023/10/09 07:25:14;;;;;;;;;;;;;;;15.53;69.86;100381.75;1087343;54;1195;-77
2023/10/09 07:26:18;;;;;;;;;;;;;;;15.55;69.84;100379.75;1086941;47;1058;-79
2023/10/09 07:27:43;;;;;;;;;;;;;;;15.52;69.98;100380.06;1085906;47;999;-79
2023/10/09 07:28:43;;;;;;;;;;;;;;;15.43;70.26;100388.16;1086453;46;952;-79
2023/10/09 07:29:50;;;;;;;;;;;;;;;15.42;70.03;100388.34;1085670;46;1175;-79
2023/10/09 07:30:57;;;;;;;;;;;;;;;15.47;70.11;100385.13;1086072;47;1115;-78
2023/10/09 07:32:12;;;;;;;;;;;;;;;15.38;70.43;100382.44;1086466;54;1122;-78
2023/10/09 07:33:19;;;;;;;;;;;;;;;15.41;70.03;100389.34;1087180;47;1043;-78
2023/10/09 07:34:52;;;;;;;;;;;;;;;15.41;70.29;100381.25;1086738;54;1382;-79
2023/10/09 07:35:57;;;;;;;;;;;;;;;15.44;70.27;100387.16;1086400;47;1134;-79
2023/10/09 07:37:03;;;;;;;;;;;;;;;15.48;69.87;100381.44;1086216;47;1330;-79
2023/10/09 07:38:08;;;;;;;;;;;;;;;15.48;69.90;100392.22;1085870;46;1862;-78
2023/10/09 07:39:13;;;;;;;;;;;;;;;15.43;70.27;100380.06;1086079;47;1581;-79
2023/10/09 07:40:17;;;;;;;;;;;;;;;15.40;70.40;100393.03;1086291;47;1130;-79
2023/10/09 07:41:33;;;;;;;;;;;;;;;15.47;69.95;100387.84;1086675;54;1180;-79
2023/10/09 07:42:43;;;;;;;;;;;;;;;15.51;69.90;100381.94;1086947;47;1102;-78
2023/10/09 07:43:45;;;;;;;;;;;;;;;15.56;69.80;100394.91;1087265;47;1410;-80
2023/10/09 07:44:52;;;;;;;;;;;;;;;15.59;69.90;100389.16;1086788;47;1056;-79
2023/10/09 07:48:40;;;;;;;;;;;;;;;15.71;69.63;100401.28;1085904;47;995;-79
2023/10/09 07:49:52;;;;;;;;;;;;;;;15.72;69.61;100391.34;1087250;54;1028;-78
2023/10/09 07:50:57;;;;;;;;;;;;;;;15.75;69.36;100391.84;1088269;46;1087;-78
2023/10/09 07:52:04;;;;;;;;;;;;;;;15.77;69.27;100394.38;1088277;47;1055;-78
2023/10/09 07:53:17;;;;;;;;;;;;;;;15.74;69.34;100392.00;1087980;47;1151;-78
2023/10/09 07:54:31;;;;;;;;;;;;;;;15.71;69.73;100385.09;1087688;47;1225;-78
2023/10/09 07:55:39;;;;;;;;;;;;;;;15.79;69.50;100386.97;1088108;54;1007;-78
2023/10/09 07:56:45;;;;;;;;;;;;;;;15.73;69.26;100393.88;1088196;54;1035;-77
2023/10/09 07:57:51;;;;;;;;;;;;;;;15.69;69.40;100397.91;1088016;47;1154;-77
2023/10/09 07:59:00;;;;;;;;;;;;;;;15.73;69.60;100396.56;1087750;47;1873;-80
2023/10/09 08:00:12;;;;;;;;;;;;;;;15.77;69.28;100390.84;1088097;54;1074;-78
2023/10/09 08:01:16;;;;;;;;;;;;;;;15.71;69.30;100387.81;1087447;54;1058;-78
2023/10/09 08:02:19;;;;;;;;;;;;;;;15.67;69.56;100391.88;1085924;54;1076;-78
2023/10/09 08:03:23;;;;;;;;;;;;;;;15.64;69.41;100397.59;1085455;54;1007;-77
2023/10/09 08:04:37;;;;;;;;;;;;;;;15.65;69.47;100401.97;1085518;47;1383;-78
2023/10/09 08:05:44;;;;;;;;;;;;;;;15.66;69.58;100400.09;1086579;54;1035;-79
2023/10/09 08:06:48;;;;;;;;;;;;;;;15.69;69.48;100402.47;1085464;47;1482;-78
2023/10/09 08:08:05;;;;;;;;;;;;;;;15.75;69.35;100396.38;1085107;47;1190;-78
2023/10/09 08:09:38;;;;;;;;;;;;;;;15.71;69.84;100406.66;1084712;54;1133;-78
2023/10/09 08:14:48;;;;;;;;;;;;;;;15.94;69.21;100403.31;1085052;47;1302;-79
2023/10/09 08:15:56;;;;;;;;;;;;;;;15.99;68.72;100403.63;1085720;47;1604;-79
2023/10/09 08:17:11;;;;;;;;;;;;;;;16.06;68.85;100398.41;1085771;47;1415;-78
2023/10/09 08:18:27;;;;;;;;;;;;;;;16.12;68.47;100396.88;1084103;47;1895;-78
2023/10/09 08:19:32;;;;;;;;;;;;;;;16.16;68.36;100404.44;1084084;47;1010;-77
2023/10/09 08:20:51;;;;;;;;;;;;;;;16.17;68.23;100391.78;1085218;54;1515;-79
2023/10/09 08:22:17;;;;;;;;;;;;;;;16.13;68.32;100393.16;1085352;54;1016;-77
2023/10/09 08:23:28;;;;;;;;;;;;;;;16.15;68.23;100386.56;1085021;54;1177;-78
2023/10/09 08:24:40;;;;;;;;;;;;;;;16.21;67.93;100388.56;1084493;54;1293;-78
2023/10/09 08:25:57;;;;;;;;;;;;;;;16.28;67.94;100391.41;1085049;47;1177;-76
2023/10/09 08:29:34;;;;;;;;;;;;;;;16.34;67.72;100400.69;1085030;47;986;-77
2023/10/09 08:31:03;;;;;;;;;;;;;;;16.35;68.00;100402.34;1086825;54;1599;-78
2023/10/09 08:32:18;;;;;;;;;;;;;;;16.43;67.91;100406.91;1085264;54;1104;-77
2023/10/09 08:34:49;;;;;;;;;;;;;;;16.48;67.79;100401.81;1085557;47;1400;-77
2023/10/09 08:35:50;;;;;;;;;;;;;;;16.51;67.40;100399.59;1084053;54;1122;-76
2023/10/09 08:36:52;;;;;;;;;;;;;;;16.56;67.46;100399.06;1085085;54;1062;-78
2023/10/09 08:37:58;;;;;;;;;;;;;;;16.60;67.58;100407.66;1085382;47;1169;-78
2023/10/09 08:39:25;;;;;;;;;;;;;;;16.60;67.61;100404.94;1085818;54;1848;-77
2023/10/09 08:40:33;;;;;;;;;;;;;;;16.46;67.99;100404.69;1085983;47;1493;-78
2023/10/09 08:41:37;;;;;;;;;;;;;;;16.45;67.84;100407.53;1087898;54;1073;-76
2023/10/09 08:42:38;;;;;;;;;;;;;;;16.52;67.86;100414.78;1087745;54;1115;-77
2023/10/09 08:43:39;;;;;;;;;;;;;;;16.56;67.47;100401.75;1087658;47;1005;-77
2023/10/09 08:44:44;;;;;;;;;;;;;;;16.54;67.49;100414.59;1087678;47;1344;-77
2023/10/09 08:45:47;;;;;;;;;;;;;;;16.48;67.22;100413.41;1087645;54;1218;-76
2023/10/09 08:46:53;;;;;;;;;;;;;;;16.52;67.54;100420.16;1087472;47;1163;-77
2023/10/09 08:47:54;;;;;;;;;;;;;;;16.61;67.16;100420.13;1087348;47;1118;-77
2023/10/09 08:48:58;;;;;;;;;;;;;;;16.67;67.38;100422.16;1085253;54;1059;-79
2023/10/09 08:50:13;;;;;;;;;;;;;;;16.74;67.27;100416.84;1085098;54;1280;-78
2023/10/09 08:51:18;;;;;;;;;;;;;;;16.78;67.21;100424.44;1084739;54;1523;-78
2023/10/09 08:52:18;;;;;;;;;;;;;;;16.76;67.38;100423.78;1083968;54;1151;-78
2023/10/09 08:53:19;;;;;;;;;;;;;;;16.74;67.52;100427.66;1083820;47;1379;-77
2023/10/09 08:54:25;;;;;;;;;;;;;;;16.75;67.32;100429.34;1083447;54;1297;-78
2023/10/09 08:55:26;;;;;;;;;;;;;;;16.73;67.44;100425.97;1083201;47;1106;-76
2023/10/09 08:56:30;;;;;;;;;;;;;;;16.80;67.48;100430.50;1083805;54;1520;-79
2023/10/09 08:57:31;;;;;;;;;;;;;;;16.82;67.44;100430.31;1083956;54;1040;-79
2023/10/09 08:58:37;;;;;;;;;;;;;;;16.84;67.24;100436.38;1082991;47;1860;-77
2023/10/09 08:59:44;;;;;;;;;;;;;;;16.89;67.17;100436.72;1083313;47;1124;-77
2023/10/09 09:00:45;;;;;;;;;;;;;;;16.86;67.23;100437.06;1082957;47;1175;-77
2023/10/09 09:01:51;;;;;;;;;;;;;;;16.94;66.99;100445.16;1083606;54;1670;-76
2023/10/09 09:02:53;;;;;;;;;;;;;;;16.86;67.01;100437.06;1083659;47;1110;-77
2023/10/09 09:03:57;;;;;;;;;;;;;;;16.86;66.84;100439.75;1083834;47;1293;-76
2023/10/09 09:04:58;;;;;;;;;;;;;;;16.96;67.17;100443.09;1084195;54;1529;-79
2023/10/09 09:06:00;;;;;;;;;;;;;;;17.03;66.56;100440.56;1084371;54;1032;-78
2023/10/09 09:07:28;;;;;;;;;;;;;;;17.13;66.45;100438.47;1084883;47;1176;-78
2023/10/09 09:08:30;;;;;;;;;;;;;;;17.23;66.15;100437.41;1085138;54;1494;-77
2023/10/09 09:09:35;;;;;;;;;;;;;;;17.31;65.83;100448.13;1086206;54;1106;-78
2023/10/09 09:10:38;;;;;;;;;;;;;;;17.36;65.81;100436.78;1085551;54;1051;-77
2023/10/09 09:11:48;;;;;;;;;;;;;;;17.44;65.56;100431.31;1085836;47;1076;-77
2023/10/09 09:12:53;;;;;;;;;;;;;;;17.49;65.16;100426.22;1087245;47;1043;-78
2023/10/09 09:14:04;;;;;;;;;;;;;;;17.54;64.96;100425.66;1087038;47;1317;-77
2023/10/09 09:15:13;;;;;;;;;;;;;;;17.61;64.62;100422.06;1086797;54;1147;-77
2023/10/09 09:16:29;;;;;;;;;;;;;;;17.69;64.72;100431.13;1086898;54;1150;-76
2023/10/09 09:17:32;;;;;;;;;;;;;;;17.76;63.94;100418.53;1086953;54;1026;-78
2023/10/09 09:18:51;;;;;;;;;;;;;;;17.82;63.54;100415.13;1086991;54;1846;-77
2023/10/09 09:19:52;;;;;;;;;;;;;;;17.88;62.79;100417.09;1087166;47;1012;-78
2023/10/09 09:20:56;;;;;;;;;;;;;;;17.93;62.92;100406.56;1087320;54;1111;-78
2023/10/09 09:21:59;;;;;;;;;;;;;;;18.00;62.67;100401.28;1087156;54;1107;-79
2023/10/09 09:23:04;;;;;;;;;;;;;;;18.07;62.49;100406.78;1086420;47;1323;-78
2023/10/09 09:24:15;;;;;;;;;;;;;;;18.15;62.07;100417.50;1086388;54;1626;-78
2023/10/09 09:25:24;;;;;;;;;;;;;;;18.22;62.23;100410.34;1085488;54;1562;-80
2023/10/09 09:26:37;;;;;;;;;;;;;;;18.33;61.22;100400.06;1084809;47;1067;-78
2023/10/09 09:27:52;;;;;;;;;;;;;;;18.42;61.16;100415.19;1084683;54;1070;-79
2023/10/09 09:28:55;;;;;;;;;;;;;;;18.52;61.07;100409.50;1084466;54;1169;-78
2023/10/09 09:30:07;;;;;;;;;;;;;;;18.62;60.84;100403.78;1084482;54;1536;-78
2023/10/09 09:31:13;;;;;;;;;;;;;;;18.70;60.13;100406.41;1084060;47;1172;-78
2023/10/09 09:32:20;;;;;;;;;;;;;;;18.81;60.11;100411.31;1084904;54;1094;-78
2023/10/09 09:33:26;;;;;;;;;;;;;;;18.88;59.29;100405.16;1083905;47;1178;-79
2023/10/09 09:34:32;;;;;;;;;;;;;;;18.93;58.84;100410.84;1083318;54;1243;-78
2023/10/09 09:35:33;;;;;;;;;;;;;;;18.92;58.93;100415.41;1083810;54;1071;-78
2023/10/09 09:36:34;;;;;;;;;;;;;;;18.93;57.43;100413.56;1083632;47;924;-78
2023/10/09 09:37:50;;;;;;;;;;;;;;;19.03;58.72;100416.81;1083701;47;1207;-79
2023/10/09 09:38:52;;;;;;;;;;;;;;;19.13;58.89;100411.06;1083183;54;1850;-77
2023/10/09 09:39:55;;;;;;;;;;;;;;;19.18;58.31;100412.16;1083331;54;1083;-78
2023/10/09 09:41:02;;;;;;;;;;;;;;;19.25;58.20;100406.00;1083300;54;1067;-78
2023/10/09 09:42:07;;;;;;;;;;;;;;;19.29;57.75;100418.09;1083222;47;1608;-78
2023/10/09 09:43:17;;;;;;;;;;;;;;;19.24;57.50;100417.84;1082943;47;1167;-78
2023/10/09 09:44:21;;;;;;;;;;;;;;;19.27;57.66;100417.47;1083170;54;1487;-78
2023/10/09 09:45:24;;;;;;;;;;;;;;;19.33;57.78;100425.66;1083257;47;1162;-78
2023/10/09 09:46:33;;;;;;;;;;;;;;;19.30;57.52;100425.19;1084036;47;1166;-78
2023/10/09 09:47:37;;;;;;;;;;;;;;;19.28;56.02;100424.56;1084122;54;977;-78
2023/10/09 09:48:44;;;;;;;;;;;;;;;19.33;57.04;100425.66;1084335;47;1113;-78
2023/10/09 09:49:44;;;;;;;;;;;;;;;19.27;55.69;100428.31;1084211;54;1059;-79
2023/10/09 09:50:48;;;;;;;;;;;;;;;19.17;55.98;100425.91;1084408;47;1479;-79
2023/10/09 09:51:48;;;;;;;;;;;;;;;19.28;56.88;100424.56;1085492;54;1169;-79
2023/10/09 09:52:58;;;;;;;;;;;;;;;19.32;56.33;100421.25;1086021;47;1131;-79
2023/10/09 09:53:59;;;;;;;;;;;;;;;19.37;56.34;100417.97;1086611;54;1413;-79
2023/10/09 09:55:07;;;;;;;;;;;;;;;19.39;55.83;100413.19;1086838;47;1083;-79
2023/10/09 09:56:16;;;;;;;;;;;;;;;19.44;56.17;100413.47;1087211;54;1070;-80
2023/10/09 09:57:25;;;;;;;;;;;;;;;19.49;55.72;100410.19;1086698;47;1000;-78
2023/10/09 09:58:32;;;;;;;;;;;;;;;19.57;56.18;100417.31;1087168;47;968;-79
2023/10/09 09:59:40;;;;;;;;;;;;;;;19.62;55.67;100410.28;1087324;54;1876;-78
2023/10/09 10:00:43;;;;;;;;;;;;;;;19.67;55.96;100409.69;1087704;47;1153;-78
2023/10/09 10:02:06;;;;;;;;;;;;;;;19.63;56.22;100411.13;1088086;47;951;-78
2023/10/09 10:03:12;;;;;;;;;;;;;;;19.62;56.40;100420.31;1088142;54;969;-79
2023/10/09 10:04:21;;;;;;;;;;;;;;;19.52;56.61;100422.50;1088038;54;1391;-78
2023/10/09 10:05:22;;;;;;;;;;;;;;;19.44;55.33;100428.88;1087987;51;1123;-79
2023/10/09 10:06:27;;;;;;;;;;;;;;;19.44;55.60;100423.47;1088041;54;998;-79
2023/10/09 10:07:36;;;;;;;;;;;;;;;19.48;55.24;100422.06;1088045;47;903;-79
2023/10/09 10:08:39;;;;;;;;;;;;;;;19.52;55.74;100431.47;1088386;54;1050;-79
2023/10/09 10:09:42;;;;;;;;;;;;;;;19.53;54.63;100424.19;1088106;54;916;-79
2023/10/09 10:10:52;;;;;;;;;;;;;;;19.47;54.47;100421.19;1087372;54;1216;-79
2023/10/09 10:12:04;;;;;;;;;;;;;;;19.43;54.66;100428.06;1086982;54;1134;-78
2023/10/09 10:13:05;;;;;;;;;;;;;;;19.44;54.70;100429.75;1087689;47;1074;-77
2023/10/09 10:14:11;;;;;;;;;;;;;;;19.52;55.14;100423.31;1088188;54;1257;-79
2023/10/09 10:15:14;;;;;;;;;;;;;;;19.57;54.64;100425.44;1088161;46;941;-78
2023/10/09 10:16:22;;;;;;;;;;;;;;;19.62;54.84;100414.88;1088116;54;1303;-79
2023/10/09 10:17:29;;;;;;;;;;;;;;;19.67;54.70;100417.81;1088231;54;1268;-78
2023/10/09 10:18:31;;;;;;;;;;;;;;;19.72;55.05;100418.09;1088209;54;1072;-79
2023/10/09 10:19:49;;;;;;;;;;;;;;;19.67;55.30;100417.81;1088010;47;1858;-78
2023/10/09 10:21:14;;;;;;;;;;;;;;;19.62;56.23;100421.13;1088209;47;1077;-79
2023/10/09 10:22:27;;;;;;;;;;;;;;;19.61;56.13;100418.63;1088303;54;1063;-79
2023/10/09 10:23:32;;;;;;;;;;;;;;;19.63;56.19;100419.28;1088502;54;1146;-78
2023/10/09 10:24:57;;;;;;;;;;;;;;;19.69;56.04;100414.94;1087811;54;1343;-78
2023/10/09 10:26:15;;;;;;;;;;;;;;;19.73;56.24;100417.06;1087653;47;1347;-78
2023/10/09 10:27:31;;;;;;;;;;;;;;;19.77;55.41;100410.19;1087113;46;1229;-79
2023/10/09 10:28:42;;;;;;;;;;;;;;;19.84;55.57;100409.44;1086417;47;1614;-78
2023/10/09 10:29:50;;;;;;;;;;;;;;;19.88;55.09;100402.59;1087703;54;1004;-79
2023/10/09 10:30:51;;;;;;;;;;;;;;;19.90;55.48;100405.94;1085170;47;1004;-78
2023/10/09 10:32:00;;;;;;;;;;;;;;;19.91;55.60;100407.63;1086646;47;1135;-78
2023/10/09 10:33:09;;;;;;;;;;;;;;;19.92;55.45;100401.16;1086748;54;1153;-78
2023/10/09 10:34:13;;;;;;;;;;;;;;;19.95;55.38;100409.75;1087475;47;1383;-77
2023/10/09 10:35:15;;;;;;;;;;;;;;;19.92;54.56;100409.31;1087204;47;1158;-77
2023/10/09 10:36:22;;;;;;;;;;;;;;;19.99;55.11;100407.47;1087426;54;1238;-78
2023/10/09 10:37:37;;;;;;;;;;;;;;;20.03;54.91;100399.78;1087043;54;1023;-78
2023/10/09 10:38:45;;;;;;;;;;;;;;;20.09;54.75;100402.53;1086840;46;1478;-78
2023/10/09 10:39:50;;;;;;;;;;;;;;;20.13;54.38;100399.41;1087675;54;1850;-78
2023/10/09 10:40:57;;;;;;;;;;;;;;;20.18;54.43;100399.66;1087468;47;1235;-78
2023/10/09 10:42:04;;;;;;;;;;;;;;;20.24;54.61;100396.13;1087243;54;1217;-78
2023/10/09 10:43:31;;;;;;;;;;;;;;;20.24;54.41;100396.13;1087535;54;1039;-78
2023/10/09 10:44:41;;;;;;;;;;;;;;;20.29;53.93;100396.38;1087275;47;1343;-79
2023/10/09 10:45:44;;;;;;;;;;;;;;;20.34;53.58;100398.50;1086642;47;988;-78
2023/10/09 10:46:51;;;;;;;;;;;;;;;20.35;53.54;100398.28;1086576;54;1118;-78
2023/10/09 10:47:58;;;;;;;;;;;;;;;20.36;52.62;100399.97;1086427;54;1134;-78
2023/10/09 10:48:59;;;;;;;;;;;;;;;20.43;52.81;100400.00;1086509;47;1619;-78
2023/10/09 10:50:20;;;;;;;;;;;;;;;20.47;52.98;100403.16;1086378;47;1071;-78
2023/10/09 10:51:21;;;;;;;;;;;;;;;20.49;52.93;100409.22;1087107;54;1115;-79
2023/10/09 10:52:35;;;;;;;;;;;;;;;20.50;52.32;100405.47;1086789;47;1049;-80
2023/10/09 10:53:49;;;;;;;;;;;;;;;20.54;52.47;100406.72;1086766;54;1142;-79
2023/10/09 10:55:17;;;;;;;;;;;;;;;20.56;52.86;100410.09;1086317;54;1106;-78
2023/10/09 10:56:34;;;;;;;;;;;;;;;20.56;53.27;100415.53;1086304;47;1150;-78
2023/10/09 10:57:53;;;;;;;;;;;;;;;20.56;53.17;100412.81;1086801;47;1085;-80
2023/10/09 11:01:11;;;;;;;;;;;;;;;20.58;52.98;100410.72;1086392;47;1110;-79
2023/10/09 11:03:13;;;;;;;;;;;;;;;20.51;52.16;100412.56;1086652;54;1020;-79
2023/10/09 11:04:24;;;;;;;;;;;;;;;20.56;52.19;100410.09;1086448;54;1318;-78
2023/10/09 11:05:28;;;;;;;;;;;;;;;20.52;51.98;100401.50;1086380;54;1081;-79
2023/10/09 11:06:36;;;;;;;;;;;;;;;20.53;52.30;100394.19;1086771;47;1018;-78
2023/10/09 11:07:38;;;;;;;;;;;;;;;20.54;51.88;100394.00;1086369;54;1086;-79
2023/10/09 11:08:54;;;;;;;;;;;;;;;20.56;51.97;100407.38;1086309;54;1204;-78
2023/10/09 11:10:08;;;;;;;;;;;;;;;20.51;52.82;100412.56;1085503;47;1233;-78
2023/10/09 11:11:19;;;;;;;;;;;;;;;20.51;52.79;100407.97;1085666;54;1075;-77
2023/10/09 11:12:22;;;;;;;;;;;;;;;20.52;52.67;100415.09;1086170;54;1048;-77
2023/10/09 11:13:52;;;;;;;;;;;;;;;20.51;52.87;100404.41;1086195;47;1171;-78
2023/10/09 11:15:06;;;;;;;;;;;;;;;20.45;52.47;100397.91;1086642;54;1417;-77
2023/10/09 11:16:15;;;;;;;;;;;;;;;20.44;52.81;100403.56;1085743;54;1268;-78
2023/10/09 11:17:25;;;;;;;;;;;;;;;20.47;52.76;100400.44;1085179;54;1058;-78
2023/10/09 11:18:27;;;;;;;;;;;;;;;20.50;52.72;100391.91;1084987;54;1056;-78
2023/10/09 11:19:40;;;;;;;;;;;;;;;20.53;52.44;100405.06;1085182;54;1860;-78
2023/10/09 11:20:53;;;;;;;;;;;;;;;20.55;53.02;100402.97;1084129;54;1390;-79
2023/10/09 11:22:28;;;;;;;;;;;;;;;20.54;53.67;100395.88;1084024;54;1102;-78
2023/10/09 11:23:29;;;;;;;;;;;;;;;20.54;53.66;100388.59;1084165;47;1287;-78
2023/10/09 11:24:34;;;;;;;;;;;;;;;20.52;54.44;100397.94;1083827;54;1334;-77
2023/10/09 11:25:37;;;;;;;;;;;;;;;20.48;53.73;100399.41;1083839;47;1045;-78
2023/10/09 11:26:40;;;;;;;;;;;;;;;20.50;53.72;100400.03;1083978;47;1089;-78
2023/10/09 11:27:50;;;;;;;;;;;;;;;20.48;53.16;100402.13;1083868;47;1155;-78
2023/10/09 11:29:13;;;;;;;;;;;;;;;20.52;52.93;100398.81;1083839;54;1035;-78
2023/10/09 11:30:26;;;;;;;;;;;;;;;20.60;53.14;100386.91;1084083;46;1609;-78
2023/10/09 11:31:27;;;;;;;;;;;;;;;20.66;52.98;100393.41;1083836;47;1169;-78
2023/10/09 11:32:32;;;;;;;;;;;;;;;20.70;53.18;100395.50;1084147;54;1159;-78
2023/10/09 11:33:43;;;;;;;;;;;;;;;20.73;52.99;100402.44;1083341;47;1113;-79
2023/10/09 11:34:51;;;;;;;;;;;;;;;20.74;53.28;100398.69;1083937;47;1177;-78
2023/10/09 11:35:57;;;;;;;;;;;;;;;20.73;52.76;100406.00;1084101;54;1564;-79
2023/10/09 11:36:58;;;;;;;;;;;;;;;20.73;52.11;100403.28;1084226;47;1302;-79
2023/10/09 11:38:20;;;;;;;;;;;;;;;20.78;51.92;100404.56;1084682;54;1058;-79
2023/10/09 11:39:31;;;;;;;;;;;;;;;20.80;51.84;100400.59;1084331;54;1850;-80
2023/10/09 11:40:42;;;;;;;;;;;;;;;20.85;51.60;100402.72;1084154;47;1474;-79
2023/10/09 11:41:49;;;;;;;;;;;;;;;20.92;51.48;100400.03;1083919;54;1035;-79
2023/10/09 11:42:50;;;;;;;;;;;;;;;20.94;51.71;100398.78;1084958;54;828;-79
2023/10/09 11:43:53;;;;;;;;;;;;;;;20.90;51.06;100400.22;1084630;54;1420;-79
2023/10/09 11:44:57;;;;;;;;;;;;;;;20.87;50.85;100398.75;1084576;47;1153;-79
2023/10/09 11:46:11;;;;;;;;;;;;;;;20.95;51.22;100400.44;1084580;46;1020;-79
2023/10/09 11:47:24;;;;;;;;;;;;;;;20.98;51.50;100396.47;1083981;47;951;-79
2023/10/09 11:48:33;;;;;;;;;;;;;;;21.02;51.13;100398.59;1083879;47;1011;-79
2023/10/09 11:49:44;;;;;;;;;;;;;;;21.10;51.29;100394.84;1084102;47;1079;-79
2023/10/09 11:50:51;;;;;;;;;;;;;;;21.16;51.02;100391.28;1084565;54;1149;-79
2023/10/09 11:53:17;;;;;;;;;;;;;;;21.27;50.78;100395.28;1084194;54;1029;-79
2023/10/09 11:54:29;;;;;;;;;;;;;;;21.32;50.99;100384.63;1084805;54;1491;-78
2023/10/09 11:55:32;;;;;;;;;;;;;;;21.32;51.01;100387.34;1083776;47;1018;-79
2023/10/09 11:56:36;;;;;;;;;;;;;;;21.33;50.68;100378.16;1084240;54;1149;-80
2023/10/09 11:57:38;;;;;;;;;;;;;;;21.41;50.43;100378.97;1084073;54;1466;-79
2023/10/09 11:58:41;;;;;;;;;;;;;;;21.43;50.14;100376.91;1084071;54;958;-79
2023/10/09 11:59:43;;;;;;;;;;;;;;;21.35;50.52;100375.22;1083574;47;1876;-79
2023/10/09 12:00:47;;;;;;;;;;;;;;;21.38;50.28;100360.34;1082839;54;1093;-79
2023/10/09 12:01:52;;;;;;;;;;;;;;;21.35;50.02;100365.16;1083626;54;1038;-79
2023/10/09 12:02:56;;;;;;;;;;;;;;;21.45;50.42;100361.19;1084134;54;1402;-79
2023/10/09 12:03:57;;;;;;;;;;;;;;;21.55;50.20;100360.78;1083563;47;1206;-79
2023/10/09 12:05:00;;;;;;;;;;;;;;;21.58;50.17;100355.78;1082755;47;1183;-79
2023/10/09 12:06:05;;;;;;;;;;;;;;;21.60;49.81;100340.09;1083238;54;1622;-79
2023/10/09 12:07:06;;;;;;;;;;;;;;;21.61;49.77;100330.91;1082734;46;1031;-79
2023/10/09 12:08:10;;;;;;;;;;;;;;;21.56;49.86;100302.63;1082771;54;1054;-79
2023/10/09 12:09:16;;;;;;;;;;;;;;;21.56;49.63;100278.97;1082774;54;1136;-80
2023/10/09 12:10:24;;;;;;;;;;;;;;;21.53;49.76;100273.97;1083154;47;1168;-78
2023/10/09 12:11:28;;;;;;;;;;;;;;;21.62;49.60;100267.28;1083345;54;1072;-79
2023/10/09 12:12:32;;;;;;;;;;;;;;;21.53;49.89;100273.13;1083716;54;1068;-78
2023/10/09 12:13:32;;;;;;;;;;;;;;;21.59;49.76;100273.16;1083689;54;1094;-78
2023/10/09 12:14:33;;;;;;;;;;;;;;;21.67;49.58;100269.38;1083761;54;1334;-79
2023/10/09 12:15:39;;;;;;;;;;;;;;;21.72;49.64;100276.91;1083549;47;1122;-79
2023/10/09 12:16:49;;;;;;;;;;;;;;;21.76;49.38;100273.53;1084407;47;1291;-79
2023/10/09 12:17:55;;;;;;;;;;;;;;;21.81;49.83;100281.06;1084005;54;1086;-79
2023/10/09 12:18:56;;;;;;;;;;;;;;;21.83;49.67;100278.94;1083729;47;1106;-79
2023/10/09 12:19:59;;;;;;;;;;;;;;;21.77;49.69;100283.34;1083612;54;1924;-79
2023/10/09 12:21:03;;;;;;;;;;;;;;;21.78;49.48;100282.31;1083933;54;1150;-78
2023/10/09 12:22:10;;;;;;;;;;;;;;;21.81;49.45;100281.06;1084075;47;1194;-78
2023/10/09 12:23:14;;;;;;;;;;;;;;;21.90;49.36;100287.94;1083299;54;1185;-78
2023/10/09 12:24:18;;;;;;;;;;;;;;;21.98;49.27;100286.84;1083289;47;1413;-78
2023/10/09 12:25:19;;;;;;;;;;;;;;;22.04;49.40;100291.47;1083832;47;1158;-78